createdAt,value
2022-10-28T00:01:17.393Z,79.20
2022-10-28T00:03:47.005Z,78.90
2022-10-28T00:06:19.686Z,78.70
2022-10-28T00:08:46.847Z,80.20
2022-10-28T00:11:19.981Z,80.70
2022-10-28T00:13:47.501Z,79.50
2022-10-28T00:16:18.821Z,79.10
2022-10-28T00:18:46.334Z,78.90
2022-10-28T00:21:15.977Z,79.40
2022-10-28T00:23:42.779Z,80.10
2022-10-28T00:26:18.035Z,79.10
2022-10-28T00:28:50.141Z,78.90
2022-10-28T00:31:19.513Z,78.70
2022-10-28T00:33:46.856Z,78.50
2022-10-28T00:36:19.800Z,78.50
2022-10-28T00:38:48.906Z,78.50
2022-10-28T00:41:19.230Z,78.60
2022-10-28T00:43:52.852Z,78.60
2022-10-28T00:46:22.868Z,79.30
2022-10-28T00:48:55.357Z,80.10
2022-10-28T00:51:24.256Z,79.50
2022-10-28T00:53:52.345Z,79.20
2022-10-28T00:56:19.949Z,79.00
2022-10-28T00:58:49.040Z,79.10
2022-10-28T01:01:15.783Z,79.40
2022-10-28T01:03:42.510Z,79.30
2022-10-28T01:06:09.999Z,79.50
2022-10-28T01:08:36.793Z,79.30
2022-10-28T01:11:40.449Z,79.40
2022-10-28T01:14:10.232Z,79.60
2022-10-28T01:16:58.619Z,80.70
2022-10-28T01:20:02.932Z,80.60
2022-10-28T01:22:55.583Z,79.80
2022-10-28T01:25:43.856Z,80.50
2022-10-28T01:28:30.737Z,80.90
2022-10-28T01:31:08.151Z,80.10
2022-10-28T01:33:41.420Z,80.10
2022-10-28T01:36:14.358Z,80.50
2022-10-28T01:39:02.890Z,80.70
2022-10-28T01:41:35.357Z,81.10
2022-10-28T01:44:25.236Z,80.60
2022-10-28T01:47:03.823Z,80.80
2022-10-28T01:49:39.399Z,80.70
2022-10-28T01:52:12.867Z,81.00
2022-10-28T01:54:41.759Z,81.50
2022-10-28T01:57:10.515Z,81.50
2022-10-28T01:59:39.675Z,82.30
2022-10-28T02:02:06.472Z,81.00
2022-10-28T02:04:33.076Z,80.80
2022-10-28T02:07:00.796Z,80.70
2022-10-28T02:09:51.700Z,81.50
2022-10-28T02:12:33.673Z,81.50
2022-10-28T02:15:31.693Z,81.20
2022-10-28T02:18:27.551Z,80.90
2022-10-28T02:21:10.149Z,80.80
2022-10-28T02:23:36.829Z,81.00
2022-10-28T02:26:16.183Z,81.00
2022-10-28T02:28:53.855Z,80.90
2022-10-28T02:31:29.962Z,80.90
2022-10-28T02:34:02.862Z,81.20
2022-10-28T02:36:33.115Z,81.00
2022-10-28T02:39:02.291Z,80.80
2022-10-28T02:42:01.265Z,80.80
2022-10-28T02:44:36.350Z,81.20
2022-10-28T02:47:12.236Z,81.00
2022-10-28T02:49:44.219Z,82.40
2022-10-28T02:52:11.137Z,81.30
2022-10-28T02:54:54.137Z,80.90
2022-10-28T02:57:24.808Z,81.20
2022-10-28T02:59:59.709Z,81.00
2022-10-28T03:02:27.734Z,81.30
2022-10-28T03:04:54.485Z,81.60
2022-10-28T03:07:21.564Z,81.80
2022-10-28T03:09:48.261Z,82.40
2022-10-28T03:12:15.106Z,82.30
2022-10-28T03:14:42.429Z,82.00
2022-10-28T03:17:09.301Z,82.40
2022-10-28T03:19:35.974Z,82.50
2022-10-28T03:22:03.388Z,82.30
2022-10-28T03:24:30.126Z,82.30
2022-10-28T03:26:56.897Z,82.10
2022-10-28T03:29:23.594Z,82.40
2022-10-28T03:31:50.254Z,82.50
2022-10-28T03:34:16.978Z,82.20
2022-10-28T03:36:43.676Z,82.20
2022-10-28T03:39:10.344Z,82.10
2022-10-28T03:41:37.031Z,82.20
2022-10-28T03:44:03.713Z,81.70
2022-10-28T03:46:32.318Z,82.00
2022-10-28T03:49:03.192Z,81.70
2022-10-28T03:51:29.876Z,82.00
2022-10-28T03:53:56.593Z,82.60
2022-10-28T03:56:23.429Z,81.80
2022-10-28T03:58:50.488Z,81.50
2022-10-28T04:01:17.352Z,81.20
2022-10-28T04:03:44.229Z,81.40
2022-10-28T04:06:11.007Z,81.80
2022-10-28T04:08:38.074Z,80.90
2022-10-28T04:11:04.990Z,81.20
2022-10-28T04:13:31.719Z,81.10
2022-10-28T04:15:58.386Z,81.40
2022-10-28T04:18:25.273Z,81.50
2022-10-28T04:20:51.908Z,81.10
2022-10-28T04:23:19.221Z,81.40
2022-10-28T04:25:45.968Z,81.20
2022-10-28T04:28:12.675Z,81.00
2022-10-28T04:30:39.602Z,80.90
2022-10-28T04:33:06.483Z,80.80
2022-10-28T04:35:33.420Z,80.70
2022-10-28T04:38:00.126Z,80.90
2022-10-28T04:40:26.868Z,81.00
2022-10-28T04:42:53.904Z,80.70
2022-10-28T04:45:20.809Z,80.90
2022-10-28T04:47:47.528Z,80.90
2022-10-28T04:50:14.508Z,80.80
2022-10-28T04:52:41.146Z,80.80
2022-10-28T04:55:08.202Z,80.80
2022-10-28T04:57:34.866Z,80.80
2022-10-28T05:00:01.553Z,80.70
2022-10-28T05:02:28.734Z,80.90
2022-10-28T05:04:55.538Z,80.80
2022-10-28T05:07:23.573Z,80.80
2022-10-28T05:09:50.475Z,80.80
2022-10-28T05:12:17.170Z,81.10
2022-10-28T05:14:44.066Z,80.80
2022-10-28T05:17:11.422Z,80.80
2022-10-28T05:19:38.121Z,80.90
2022-10-28T05:22:04.780Z,80.70
2022-10-28T05:24:31.509Z,80.90
2022-10-28T05:27:00.841Z,80.60
2022-10-28T05:29:32.243Z,80.60
2022-10-28T05:32:00.366Z,80.50
2022-10-28T05:34:27.900Z,80.40
2022-10-28T05:36:54.522Z,80.50
2022-10-28T05:39:21.147Z,80.60
2022-10-28T05:41:47.822Z,80.50
2022-10-28T05:44:14.492Z,80.70
2022-10-28T05:46:41.159Z,81.40
2022-10-28T05:49:07.890Z,81.10
2022-10-28T05:51:34.581Z,81.20
2022-10-28T05:54:01.247Z,81.20
2022-10-28T05:56:27.994Z,81.20
2022-10-28T05:58:54.797Z,81.30
2022-10-28T06:01:21.500Z,81.10
2022-10-28T06:03:48.247Z,81.10
2022-10-28T06:06:14.939Z,81.40
2022-10-28T06:08:41.698Z,81.60
2022-10-28T06:11:06.782Z,81.80
2022-10-28T06:13:33.430Z,82.40
2022-10-28T06:16:02.412Z,82.10
2022-10-28T06:18:29.084Z,82.00
2022-10-28T06:20:57.554Z,81.90
2022-10-28T06:23:25.975Z,82.10
2022-10-28T06:28:30.259Z,81.40
2022-10-28T06:31:02.314Z,81.30
2022-10-28T06:33:29.006Z,81.30
2022-10-28T06:35:56.847Z,81.10
2022-10-28T06:38:24.447Z,80.80
2022-10-28T06:40:52.504Z,80.90
2022-10-28T06:43:19.527Z,81.60
2022-10-28T06:45:46.848Z,81.30
2022-10-28T06:48:15.112Z,81.20
2022-10-28T06:50:41.791Z,81.30
2022-10-28T06:53:09.199Z,81.20
2022-10-28T06:55:35.844Z,81.00
2022-10-28T06:58:04.241Z,81.10
2022-10-28T07:00:33.147Z,80.90
2022-10-28T07:03:00.305Z,81.70
2022-10-28T07:05:27.803Z,81.50
2022-10-28T07:07:55.379Z,81.70
2022-10-28T07:10:22.466Z,81.40
2022-10-28T07:12:49.455Z,81.40
2022-10-28T07:15:16.192Z,81.40
2022-10-28T07:17:42.895Z,81.50
2022-10-28T07:20:10.363Z,81.80
2022-10-28T07:22:37.030Z,82.10
2022-10-28T07:25:03.845Z,81.60
2022-10-28T07:27:30.497Z,81.30
2022-10-28T07:29:57.149Z,81.30
2022-10-28T07:32:23.811Z,81.30
2022-10-28T07:34:50.445Z,81.00
2022-10-28T07:37:17.168Z,81.50
2022-10-28T07:39:43.851Z,81.50
2022-10-28T07:42:10.622Z,81.40
2022-10-28T07:44:37.263Z,81.30
2022-10-28T07:47:05.541Z,81.30
2022-10-28T07:49:32.944Z,81.40
2022-10-28T07:51:59.658Z,81.90
2022-10-28T07:54:26.451Z,82.30
2022-10-28T07:56:53.105Z,82.80
2022-10-28T07:59:25.779Z,82.90
2022-10-28T08:01:54.063Z,82.30
2022-10-28T08:04:20.811Z,82.60
2022-10-28T08:06:47.469Z,82.30
2022-10-28T08:09:14.165Z,83.00
2022-10-28T08:11:40.883Z,82.20
2022-10-28T08:14:08.071Z,82.50
2022-10-28T08:16:34.793Z,82.40
2022-10-28T08:19:06.687Z,81.90
2022-10-28T08:21:34.476Z,82.10
2022-10-28T08:24:01.207Z,82.20
2022-10-28T08:26:27.919Z,82.00
2022-10-28T08:28:54.559Z,82.10
2022-10-28T08:31:21.253Z,82.10
2022-10-28T08:33:47.930Z,82.10
2022-10-28T08:36:16.573Z,82.10
2022-10-28T08:38:45.949Z,82.00
2022-10-28T08:41:25.159Z,82.30
2022-10-28T08:43:57.028Z,82.30
2022-10-28T08:46:56.921Z,82.30
2022-10-28T08:49:24.716Z,82.20
2022-10-28T08:51:58.717Z,82.20
2022-10-28T08:54:34.231Z,82.40
2022-10-28T08:57:04.240Z,82.60
2022-10-28T08:59:41.591Z,82.90
2022-10-28T09:02:11.030Z,82.70
2022-10-28T09:04:39.262Z,82.90
2022-10-28T09:07:13.761Z,82.80
2022-10-28T09:09:40.387Z,82.80
2022-10-28T09:12:34.249Z,82.90
2022-10-28T09:15:12.874Z,82.90
2022-10-28T09:17:58.075Z,82.90
2022-10-28T09:20:53.834Z,82.70
2022-10-28T09:23:36.350Z,82.80
2022-10-28T09:26:16.036Z,83.00
2022-10-28T09:29:03.654Z,83.20
2022-10-28T09:31:41.027Z,83.10
2022-10-28T09:34:31.810Z,82.90
2022-10-28T09:37:06.582Z,83.00
2022-10-28T09:39:41.924Z,82.50
2022-10-28T09:42:18.069Z,82.90
2022-10-28T09:44:52.841Z,82.70
2022-10-28T09:47:34.537Z,82.70
2022-10-28T09:50:07.424Z,82.50
2022-10-28T09:52:43.089Z,82.20
2022-10-28T09:55:20.441Z,82.10
2022-10-28T09:57:47.224Z,82.00
2022-10-28T10:00:16.229Z,81.70
2022-10-28T10:02:44.524Z,81.60
2022-10-28T10:05:17.362Z,81.80
2022-10-28T10:07:52.313Z,81.70
2022-10-28T10:10:34.739Z,81.20
2022-10-28T10:13:04.583Z,81.00
2022-10-28T10:15:36.482Z,81.10
2022-10-28T10:18:06.372Z,81.10
2022-10-28T10:20:46.224Z,80.90
2022-10-28T10:23:37.377Z,80.60
2022-10-28T10:26:11.314Z,80.30
2022-10-28T10:28:44.259Z,80.50
2022-10-28T10:31:21.431Z,80.30
2022-10-28T10:33:56.991Z,80.00
2022-10-28T10:36:28.604Z,80.00
2022-10-28T10:38:56.103Z,80.00
2022-10-28T10:41:44.199Z,79.70
2022-10-28T10:44:22.820Z,79.60
2022-10-28T10:46:52.548Z,79.10
2022-10-28T10:49:19.192Z,79.20
2022-10-28T10:51:58.480Z,78.90
2022-10-28T10:54:32.544Z,78.60
2022-10-28T10:57:19.658Z,78.40
2022-10-28T10:59:48.902Z,78.40
2022-10-28T11:02:39.415Z,78.60
2022-10-28T11:05:10.503Z,78.20
2022-10-28T11:07:40.397Z,78.00
2022-10-28T11:10:19.141Z,78.00
2022-10-28T11:12:55.424Z,78.00
2022-10-28T11:15:28.599Z,77.90
2022-10-28T11:17:56.929Z,77.60
2022-10-28T11:20:27.637Z,77.30
2022-10-28T11:23:24.491Z,77.10
2022-10-28T11:25:54.703Z,76.50
2022-10-28T11:28:30.051Z,76.80
2022-10-28T11:31:15.362Z,76.60
2022-10-28T11:34:06.767Z,75.10
2022-10-28T11:36:59.278Z,75.20
2022-10-28T11:39:56.695Z,75.40
2022-10-28T11:42:29.873Z,75.40
2022-10-28T11:45:25.917Z,75.40
2022-10-28T11:48:11.065Z,74.90
2022-10-28T11:50:58.845Z,74.70
2022-10-28T11:53:53.815Z,75.40
2022-10-28T11:56:39.074Z,75.60
2022-10-28T11:59:23.943Z,75.40
2022-10-28T12:02:21.227Z,75.20
2022-10-28T12:05:09.636Z,75.20
2022-10-28T12:08:17.551Z,75.10
2022-10-28T12:11:11.223Z,74.80
2022-10-28T12:14:03.374Z,74.90
2022-10-28T12:16:50.506Z,74.80
2022-10-28T12:19:29.552Z,74.70
2022-10-28T12:22:02.915Z,74.80
2022-10-28T12:24:34.963Z,74.70
2022-10-28T12:27:18.823Z,74.70
2022-10-28T12:29:51.269Z,74.10
2022-10-28T12:32:26.407Z,74.40
2022-10-28T12:35:28.002Z,74.00
2022-10-28T12:38:08.954Z,74.40
2022-10-28T12:40:55.948Z,73.40
2022-10-28T12:43:40.389Z,73.40
2022-10-28T12:46:20.222Z,73.00
2022-10-28T12:48:58.448Z,72.70
2022-10-28T12:51:31.180Z,72.90
2022-10-28T12:54:16.988Z,71.70
2022-10-28T12:57:02.961Z,72.30
2022-10-28T12:59:32.469Z,71.70
2022-10-28T13:02:01.346Z,72.10
2022-10-28T13:04:28.815Z,72.20
2022-10-28T13:07:33.130Z,71.70
2022-10-28T13:10:18.155Z,71.60
2022-10-28T13:12:58.223Z,71.70
2022-10-28T13:15:39.674Z,72.40
2022-10-28T13:18:25.253Z,71.70
2022-10-28T13:21:04.943Z,71.20
2022-10-28T13:23:55.421Z,71.40
2022-10-28T13:26:48.261Z,71.30
2022-10-28T13:29:24.570Z,71.20
2022-10-28T13:31:52.341Z,71.30
2022-10-28T13:34:22.546Z,71.00
2022-10-28T13:37:02.992Z,70.80
2022-10-28T13:39:29.611Z,70.60
2022-10-28T13:42:25.850Z,70.60
2022-10-28T13:44:55.360Z,70.10
2022-10-28T13:47:31.153Z,70.40
2022-10-28T13:50:09.728Z,69.40
2022-10-28T13:52:40.961Z,69.00
2022-10-28T13:55:27.656Z,69.30
2022-10-28T13:58:04.338Z,68.70
2022-10-28T14:00:30.907Z,69.50
2022-10-28T14:02:59.312Z,69.50
2022-10-28T14:05:38.721Z,69.10
2022-10-28T14:08:08.673Z,69.40
2022-10-28T14:10:39.880Z,69.80
2022-10-28T14:15:48.389Z,69.40
2022-10-28T14:18:41.830Z,69.30
2022-10-28T14:21:03.282Z,69.00
2022-10-28T14:23:29.899Z,68.20
2022-10-28T14:26:02.845Z,66.40
2022-10-28T14:28:35.357Z,64.80
2022-10-28T14:31:08.075Z,66.40
2022-10-28T14:33:36.546Z,67.00
2022-10-28T14:36:49.489Z,68.30
2022-10-28T14:39:40.278Z,68.10
2022-10-28T14:42:44.810Z,65.50
2022-10-28T14:45:23.825Z,66.00
2022-10-28T14:48:14.965Z,66.90
2022-10-28T14:50:46.909Z,66.20
2022-10-28T14:53:25.498Z,66.70
2022-10-28T14:56:19.212Z,65.50
2022-10-28T14:58:45.966Z,65.30
2022-10-28T15:01:18.707Z,66.50
2022-10-28T15:04:07.001Z,65.60
2022-10-28T15:06:39.105Z,65.10
2022-10-28T15:09:17.789Z,66.20
2022-10-28T15:11:49.463Z,65.70
2022-10-28T15:14:28.866Z,66.60
2022-10-28T15:16:56.100Z,67.30
2022-10-28T15:19:25.637Z,66.50
2022-10-28T15:22:07.304Z,67.30
2022-10-28T15:24:34.284Z,67.00
2022-10-28T15:27:00.944Z,67.60
2022-10-28T15:29:28.044Z,67.90
2022-10-28T15:32:16.190Z,67.90
2022-10-28T15:34:43.742Z,68.00
2022-10-28T15:37:11.230Z,67.60
2022-10-28T15:39:39.266Z,67.80
2022-10-28T15:42:28.536Z,67.10
2022-10-28T15:44:56.784Z,67.90
2022-10-28T15:47:31.831Z,67.20
2022-10-28T15:50:16.768Z,67.50
2022-10-28T15:52:50.206Z,67.90
2022-10-28T15:55:23.707Z,67.10
2022-10-28T15:58:19.622Z,66.50
2022-10-28T16:00:54.145Z,66.40
2022-10-28T16:03:40.304Z,66.60
2022-10-28T16:06:19.974Z,66.50
2022-10-28T16:08:47.451Z,66.80
2022-10-28T16:11:17.930Z,66.40
2022-10-28T16:13:49.618Z,66.10
2022-10-28T16:16:27.284Z,66.20
2022-10-28T16:18:59.890Z,65.70
2022-10-28T16:21:27.153Z,65.70
2022-10-28T16:23:58.994Z,65.10
2022-10-28T16:26:27.074Z,65.40
2022-10-28T16:28:53.739Z,64.80
2022-10-28T16:31:22.879Z,64.80
2022-10-28T16:33:49.638Z,65.00
2022-10-28T16:36:16.290Z,64.80
2022-10-28T16:38:42.924Z,65.50
2022-10-28T16:41:17.041Z,66.80
2022-10-28T16:43:44.008Z,67.10
2022-10-28T16:46:14.480Z,67.40
2022-10-28T16:48:41.421Z,67.30
2022-10-28T16:51:15.034Z,66.90
2022-10-28T16:53:46.834Z,66.90
2022-10-28T16:56:16.201Z,67.00
2022-10-28T16:58:44.092Z,67.50
2022-10-28T17:01:11.540Z,67.50
2022-10-28T17:03:38.403Z,67.90
2022-10-28T17:06:05.220Z,67.70
2022-10-28T17:09:00.764Z,67.40
2022-10-28T17:11:18.568Z,66.60
2022-10-28T17:13:45.326Z,66.40
2022-10-28T17:16:12.855Z,66.40
2022-10-28T17:18:40.117Z,66.30
2022-10-28T17:21:06.738Z,66.60
2022-10-28T17:23:33.337Z,66.70
2022-10-28T17:26:03.419Z,67.40
2022-10-28T17:28:30.164Z,66.60
2022-10-28T17:31:08.333Z,66.70
2022-10-28T17:33:35.499Z,67.30
2022-10-28T17:36:05.092Z,67.10
2022-10-28T17:38:31.905Z,66.90
2022-10-28T17:40:58.647Z,67.30
2022-10-28T17:43:25.418Z,68.30
2022-10-28T17:45:52.184Z,68.30
2022-10-28T17:48:18.909Z,68.70
2022-10-28T17:50:54.739Z,68.90
2022-10-28T17:53:22.174Z,69.10
2022-10-28T17:55:59.220Z,69.30
2022-10-28T17:58:26.209Z,69.40
2022-10-28T18:01:00.634Z,69.40
2022-10-28T18:03:28.412Z,69.60
2022-10-28T18:05:55.737Z,69.50
2022-10-28T18:08:23.305Z,69.50
2022-10-28T18:10:54.975Z,69.50
2022-10-28T18:13:26.148Z,69.70
2022-10-28T18:15:52.970Z,69.70
2022-10-28T18:18:19.618Z,69.30
2022-10-28T18:20:53.403Z,69.60
2022-10-28T18:23:20.388Z,69.80
2022-10-28T18:25:47.193Z,70.00
2022-10-28T18:28:13.897Z,70.20
2022-10-28T18:30:40.629Z,70.00
2022-10-28T18:33:07.314Z,69.40
2022-10-28T18:35:34.612Z,69.30
2022-10-28T18:38:02.985Z,69.80
2022-10-28T18:40:29.626Z,70.20
2022-10-28T18:42:56.253Z,70.20
2022-10-28T18:45:22.916Z,70.60
2022-10-28T18:47:49.506Z,70.00
2022-10-28T18:50:16.956Z,69.80
2022-10-28T18:52:43.572Z,69.80
2022-10-28T18:55:10.266Z,69.80
2022-10-28T18:57:36.999Z,69.80
2022-10-28T19:00:20.093Z,70.30
2022-10-28T19:05:19.425Z,70.50
2022-10-28T19:07:46.103Z,70.80
2022-10-28T19:10:12.773Z,70.60
2022-10-28T19:12:42.932Z,70.50
2022-10-28T19:15:11.861Z,70.50
2022-10-28T19:17:38.566Z,70.90
2022-10-28T19:20:05.509Z,71.00
2022-10-28T19:22:32.305Z,71.10
2022-10-28T19:24:59.834Z,71.20
2022-10-28T19:27:26.604Z,71.10
2022-10-28T19:29:53.293Z,71.40
2022-10-28T19:32:19.944Z,71.10
2022-10-28T19:34:46.574Z,71.70
2022-10-28T19:37:13.217Z,72.10
2022-10-28T19:39:43.628Z,72.00
2022-10-28T19:42:11.872Z,71.80
2022-10-28T19:44:38.514Z,71.90
2022-10-28T19:47:05.264Z,72.40
2022-10-28T19:49:37.269Z,72.50
2022-10-28T19:52:06.054Z,72.20
2022-10-28T19:54:33.382Z,71.90
2022-10-28T19:57:00.049Z,72.00
2022-10-28T19:59:26.709Z,72.60
2022-10-28T20:01:53.434Z,72.90
2022-10-28T20:04:21.466Z,72.40
2022-10-28T20:06:48.096Z,72.20
2022-10-28T20:09:14.763Z,72.40
2022-10-28T20:11:41.441Z,72.40
2022-10-28T20:14:12.333Z,73.20
2022-10-28T20:16:42.398Z,72.70
2022-10-28T20:19:09.773Z,72.60
2022-10-28T20:21:37.564Z,72.70
2022-10-28T20:24:06.054Z,73.10
2022-10-28T20:26:34.123Z,72.90
2022-10-28T20:29:03.938Z,72.90
2022-10-28T20:31:32.070Z,73.00
2022-10-28T20:34:03.562Z,72.90
2022-10-28T20:36:35.459Z,73.00
2022-10-28T20:39:11.374Z,73.10
2022-10-28T20:41:39.804Z,73.10
2022-10-28T20:44:07.314Z,73.00
2022-10-28T20:46:35.244Z,73.50
2022-10-28T20:49:03.356Z,73.60
2022-10-28T20:51:32.504Z,74.60
2022-10-28T20:53:59.710Z,73.80
2022-10-28T20:56:28.840Z,73.60
2022-10-28T20:58:56.757Z,73.80
2022-10-28T21:01:29.893Z,74.00
2022-10-28T21:04:00.365Z,73.90
2022-10-28T21:06:28.497Z,73.80
2022-10-28T21:08:56.553Z,74.00
2022-10-28T21:11:23.996Z,74.20
2022-10-28T21:13:52.548Z,74.30
2022-10-28T21:16:21.813Z,73.80
2022-10-28T21:18:48.937Z,73.60
2022-10-28T21:21:16.139Z,73.40
2022-10-28T21:23:43.374Z,73.30
2022-10-28T21:26:11.479Z,73.70
2022-10-28T21:28:41.319Z,74.00
2022-10-28T21:31:13.358Z,73.90
2022-10-28T21:33:40.929Z,73.70
2022-10-28T21:36:11.796Z,73.90
2022-10-28T21:38:38.876Z,74.00
2022-10-28T21:41:07.734Z,74.00
2022-10-28T21:43:36.513Z,73.70
2022-10-28T21:46:03.644Z,73.80
2022-10-28T21:48:31.061Z,73.90
2022-10-28T21:50:59.811Z,73.80
2022-10-28T21:53:27.617Z,74.00
2022-10-28T21:56:05.050Z,74.10
2022-10-28T21:58:32.120Z,74.00
2022-10-28T22:01:05.007Z,74.00
2022-10-28T22:03:31.855Z,74.30
2022-10-28T22:05:58.587Z,74.10
2022-10-28T22:08:25.242Z,74.20
2022-10-28T22:10:59.573Z,74.40
2022-10-28T22:13:26.259Z,74.40
2022-10-28T22:16:00.964Z,74.20
2022-10-28T22:18:28.964Z,74.10
2022-10-28T22:20:56.099Z,74.30
2022-10-28T22:23:23.126Z,74.30
2022-10-28T22:25:49.813Z,74.40
2022-10-28T22:28:16.453Z,74.70
2022-10-28T22:30:43.116Z,74.40
2022-10-28T22:33:09.769Z,74.30
2022-10-28T22:35:36.408Z,74.10
2022-10-28T22:38:03.152Z,74.60
2022-10-28T22:40:30.992Z,74.70
2022-10-28T22:42:57.631Z,74.50
2022-10-28T22:45:24.311Z,74.30
2022-10-28T22:47:51.147Z,74.20
2022-10-28T22:50:17.918Z,74.70
2022-10-28T22:52:44.529Z,74.50
2022-10-28T22:55:11.306Z,74.50
2022-10-28T22:57:37.937Z,74.60
2022-10-28T23:00:05.083Z,74.70
2022-10-28T23:02:31.920Z,75.10
2022-10-28T23:04:58.637Z,75.00
2022-10-28T23:07:25.277Z,75.10
2022-10-28T23:09:51.864Z,75.30
2022-10-28T23:12:18.453Z,75.20
2022-10-28T23:14:45.084Z,75.20
2022-10-28T23:17:11.780Z,75.20
2022-10-28T23:19:38.443Z,75.00
2022-10-28T23:22:05.046Z,75.00
2022-10-28T23:24:31.679Z,74.90
2022-10-28T23:29:29.921Z,74.80
2022-10-28T23:31:56.530Z,75.40
2022-10-28T23:34:23.225Z,75.40
2022-10-28T23:36:53.944Z,76.10
2022-10-28T23:39:23.725Z,76.10
2022-10-28T23:41:50.373Z,75.70
2022-10-28T23:44:17.080Z,75.60
2022-10-28T23:46:43.668Z,75.50
2022-10-28T23:49:10.338Z,75.60
2022-10-28T23:51:36.982Z,75.90
2022-10-28T23:54:03.803Z,76.10
2022-10-28T23:56:30.681Z,76.00
2022-10-28T23:58:57.435Z,75.80
